Time;durP1;ratioP1;P1;durP2;ratioP2;P2;SDS_P1;SDS_P2;PMS_P1;PMS_P2;Temp;Humidity;BMP_temperature;BMP_pressure;BME280_temperature;BME280_humidity;BME280_pressure;Samples;Min_cycle;Max_cycle;Signal;HPM_P1;HPM_P2
2022/08/03 00:02:05;;;;;;;1.77;1.10;;;;;;;16.17;100.00;93233.56;5089126;28;20040;-76
2022/08/03 00:04:31;;;;;;;2.10;1.10;;;;;;;16.11;100.00;93223.41;5089540;28;20094;-76
2022/08/03 00:06:58;;;;;;;2.45;1.27;;;;;;;16.13;100.00;93223.94;5088829;28;20056;-77
2022/08/03 00:09:25;;;;;;;2.00;1.17;;;;;;;16.11;100.00;93224.19;5089402;28;20052;-76
2022/08/03 00:11:53;;;;;;;1.85;1.20;;;;;;;16.13;100.00;93222.13;5089136;28;20101;-76
2022/08/03 00:14:21;;;;;;;2.00;1.20;;;;;;;16.05;100.00;93217.38;5088851;28;20050;-76
2022/08/03 00:16:47;;;;;;;2.10;1.20;;;;;;;16.03;100.00;93220.19;5088750;28;20105;-76
2022/08/03 00:19:14;;;;;;;2.63;1.20;;;;;;;15.93;100.00;93220.13;5089261;28;20048;-76
2022/08/03 00:21:41;;;;;;;2.03;1.08;;;;;;;15.86;100.00;93215.09;5088926;28;20458;-76
2022/08/03 00:24:08;;;;;;;2.65;1.00;;;;;;;15.86;100.00;93216.88;5089160;28;20456;-76
2022/08/03 00:26:35;;;;;;;2.05;1.17;;;;;;;15.88;100.00;93214.84;5089318;28;20044;-76
2022/08/03 00:29:03;;;;;;;2.88;1.20;;;;;;;15.91;100.00;93216.94;5089115;28;20040;-75
2022/08/03 00:31:29;;;;;;;1.83;1.15;;;;;;;15.90;100.00;93217.97;5089038;28;20040;-76
2022/08/03 00:33:56;;;;;;;1.73;1.00;;;;;;;15.93;100.00;93212.34;5089064;28;20040;-76
2022/08/03 00:36:23;;;;;;;2.83;0.95;;;;;;;15.93;100.00;93214.94;5088874;28;20044;-75
2022/08/03 00:38:50;;;;;;;1.83;1.00;;;;;;;15.90;100.00;93216.19;5088955;28;20093;-75
2022/08/03 00:41:16;;;;;;;2.80;1.15;;;;;;;15.84;100.00;93213.75;5088602;28;20047;-75
2022/08/03 00:43:43;;;;;;;2.05;1.20;;;;;;;15.80;100.00;93218.66;5088850;28;20044;-75
2022/08/03 00:46:12;;;;;;;3.40;1.60;;;;;;;15.73;100.00;93213.63;5088474;28;20052;-75
2022/08/03 00:48:38;;;;;;;2.20;1.50;;;;;;;15.76;100.00;93217.56;5088640;28;20097;-75
2022/08/03 00:51:06;;;;;;;2.65;1.20;;;;;;;15.73;100.00;93211.06;5088744;28;20043;-75
2022/08/03 00:53:35;;;;;;;2.28;1.30;;;;;;;15.71;100.00;93215.69;5089130;28;20115;-75
2022/08/03 00:56:02;;;;;;;2.05;1.40;;;;;;;15.70;100.00;93211.53;5103157;28;20040;-77
2022/08/03 00:58:29;;;;;;;2.03;1.10;;;;;;;15.63;100.00;93216.91;5101119;28;20092;-76
2022/08/03 01:00:55;;;;;;;2.45;1.70;;;;;;;15.56;100.00;93207.75;5094734;28;20443;-76
2022/08/03 01:03:24;;;;;;;1.90;1.20;;;;;;;15.47;100.00;93197.78;5099300;28;20535;-76
2022/08/03 01:06:12;;;;;;;2.00;1.35;;;;;;;15.44;100.00;93193.09;5103543;28;20104;-76
2022/08/03 01:08:52;;;;;;;1.92;1.13;;;;;;;15.46;100.00;93195.47;5100657;28;20043;-76
2022/08/03 01:11:27;;;;;;;2.00;1.45;;;;;;;15.47;100.00;93197.78;5094981;28;20043;-75
2022/08/03 01:14:03;;;;;;;2.35;1.45;;;;;;;15.45;100.00;93188.69;5096479;28;20093;-76
2022/08/03 01:16:33;;;;;;;2.10;1.40;;;;;;;15.41;100.00;93195.41;5095029;28;20047;-75
2022/08/03 01:19:25;;;;;;;6.03;1.65;;;;;;;15.36;100.00;93198.69;5095973;28;20100;-75
2022/08/03 01:22:06;;;;;;;3.17;1.50;;;;;;;15.41;100.00;93211.69;5097366;28;20052;-75
2022/08/03 01:24:44;;;;;;;2.30;1.60;;;;;;;15.34;100.00;93191.19;5094629;28;20090;-75
2022/08/03 01:27:14;;;;;;;2.67;1.42;;;;;;;15.36;100.00;93204.66;5098853;28;20052;-75
2022/08/03 01:30:04;;;;;;;2.30;1.45;;;;;;;15.33;100.00;93204.34;5106044;28;20039;-75
2022/08/03 01:32:37;;;;;;;3.33;1.48;;;;;;;15.28;100.00;93199.88;5104822;28;20504;-75
2022/08/03 01:35:09;;;;;;;3.50;1.42;;;;;;;15.28;100.00;93199.88;5098510;28;20043;-75
2022/08/03 01:37:40;;;;;;;2.08;1.55;;;;;;;15.24;100.00;93201.41;5101305;28;20089;-75
2022/08/03 01:40:12;;;;;;;2.20;1.35;;;;;;;15.20;100.00;93198.50;5107063;28;20036;-76
2022/08/03 01:42:41;;;;;;;2.25;1.60;;;;;;;15.16;100.00;93196.63;5104373;28;20403;-76
2022/08/03 01:45:12;;;;;;;2.80;1.85;;;;;;;15.13;100.00;93202.28;5098342;28;20451;-76
2022/08/03 01:47:39;;;;;;;2.50;1.50;;;;;;;15.12;100.00;93198.09;5098456;28;20088;-76
2022/08/03 01:50:08;;;;;;;2.90;1.30;;;;;;;15.09;100.00;93199.38;5101308;28;20101;-76
2022/08/03 01:52:37;;;;;;;2.03;1.45;;;;;;;15.01;100.00;93189.44;5106543;28;20559;-75
2022/08/03 01:55:06;;;;;;;2.70;1.55;;;;;;;15.04;100.00;93205.25;5103125;28;20096;-76
2022/08/03 01:57:35;;;;;;;2.55;1.38;;;;;;;15.08;100.00;93202.97;5098341;28;20039;-76
2022/08/03 02:00:02;;;;;;;3.08;1.35;;;;;;;15.06;100.00;93203.22;5103119;28;20040;-77
2022/08/03 02:02:32;;;;;;;4.20;2.03;;;;;;;15.05;100.00;93204.22;5106495;28;20047;-77
2022/08/03 02:05:01;;;;;;;4.35;1.73;;;;;;;15.08;100.00;93208.16;5100194;28;20040;-77
2022/08/03 02:07:30;;;;;;;2.10;1.50;;;;;;;15.01;100.00;93199.78;5097930;28;20074;-77
2022/08/03 02:09:59;;;;;;;3.17;1.42;;;;;;;14.99;100.00;93200.00;5105263;28;20113;-77
2022/08/03 02:12:28;;;;;;;3.20;1.83;;;;;;;14.98;100.00;93197.66;5105975;28;20466;-76
2022/08/03 02:14:57;;;;;;;2.42;1.60;;;;;;;15.00;100.00;93208.56;5106191;28;20526;-76
2022/08/03 02:17:26;;;;;;;3.75;2.30;;;;;;;15.03;100.00;93202.91;5104687;28;20439;-75
2022/08/03 02:19:56;;;;;;;2.80;1.52;;;;;;;15.05;100.00;93200.88;5097982;28;20122;-75
2022/08/03 02:22:24;;;;;;;2.78;1.50;;;;;;;15.01;100.00;93192.00;5100651;28;20059;-76
2022/08/03 02:24:51;;;;;;;2.15;1.40;;;;;;;14.99;100.00;93199.25;5105969;28;20043;-75
2022/08/03 02:27:21;;;;;;;3.13;1.48;;;;;;;14.91;100.00;93203.00;5101616;28;20550;-75
2022/08/03 02:29:53;;;;;;;2.00;1.42;;;;;;;14.85;100.00;93193.59;5097453;28;20489;-75
2022/08/03 02:32:24;;;;;;;2.22;1.50;;;;;;;14.78;100.00;93197.16;5102214;28;20554;-75
2022/08/03 02:34:52;;;;;;;2.10;1.60;;;;;;;14.75;100.00;93197.59;5106039;28;20088;-75
2022/08/03 02:37:24;;;;;;;3.25;1.80;;;;;;;14.73;100.00;93209.16;5099826;28;20044;-75
2022/08/03 02:39:53;;;;;;;2.33;1.58;;;;;;;14.67;100.00;93203.91;5097104;28;20048;-74
2022/08/03 02:42:23;;;;;;;2.28;1.52;;;;;;;14.72;100.00;93205.00;5103988;28;20056;-74
2022/08/03 02:44:53;;;;;;;2.30;1.70;;;;;;;14.71;100.00;93188.72;5105830;28;20044;-74
2022/08/03 02:47:21;;;;;;;2.33;1.85;;;;;;;14.76;100.00;93191.41;5093923;28;20048;-74
2022/08/03 02:49:49;;;;;;;3.78;1.70;;;;;;;14.67;100.00;93188.41;5102494;28;20083;-74
2022/08/03 02:52:17;;;;;;;2.38;1.27;;;;;;;14.69;100.00;93185.59;5091307;28;20398;-75
2022/08/03 02:54:47;;;;;;;2.35;1.55;;;;;;;14.63;100.00;93182.13;5103522;28;20489;-75
2022/08/03 02:57:18;;;;;;;6.35;2.10;;;;;;;14.68;100.00;93192.53;5100670;28;20093;-75
2022/08/03 02:59:45;;;;;;;3.15;1.40;;;;;;;14.65;100.00;93200.00;5097073;28;20043;-75
2022/08/03 03:02:14;;;;;;;3.00;1.67;;;;;;;14.67;100.00;93191.00;5102304;28;20471;-75
2022/08/03 03:04:42;;;;;;;3.40;1.67;;;;;;;14.67;100.00;93201.31;5104831;28;20044;-75
2022/08/03 03:07:09;;;;;;;2.97;1.35;;;;;;;14.66;100.00;93199.75;5098819;28;20047;-75
2022/08/03 03:09:36;;;;;;;2.67;1.65;;;;;;;14.59;100.00;93198.34;5097208;28;20048;-75
2022/08/03 03:12:07;;;;;;;5.20;1.80;;;;;;;14.57;100.00;93196.78;5104971;28;20489;-75
2022/08/03 03:14:34;;;;;;;3.50;1.80;;;;;;;14.57;100.00;93198.56;5103857;28;20048;-75
2022/08/03 03:17:02;;;;;;;3.90;1.77;;;;;;;14.51;100.00;93189.97;5096598;28;20302;-75
2022/08/03 03:19:30;;;;;;;3.58;1.90;;;;;;;14.51;100.00;93199.50;5099904;28;20390;-75
2022/08/03 03:22:00;;;;;;;4.78;1.80;;;;;;;14.48;100.00;93208.53;5104778;28;20048;-75
2022/08/03 03:24:28;;;;;;;3.17;1.45;;;;;;;14.49;100.00;93204.16;5100983;28;20140;-75
2022/08/03 03:26:55;;;;;;;3.20;1.75;;;;;;;14.46;100.00;93207.97;5096640;28;20048;-75
2022/08/03 03:29:23;;;;;;;5.38;2.25;;;;;;;14.44;100.00;93215.16;5102086;28;20052;-74
2022/08/03 03:31:51;;;;;;;3.60;1.52;;;;;;;14.41;100.00;93211.25;5104849;28;20096;-74
2022/08/03 03:34:19;;;;;;;5.15;2.20;;;;;;;14.38;100.00;93211.72;5097617;28;20047;-74
2022/08/03 03:36:45;;;;;;;5.20;2.00;;;;;;;14.39;100.00;93204.75;5097034;28;20669;-74
2022/08/03 03:39:12;;;;;;;2.75;1.75;;;;;;;14.39;100.00;93210.72;5104739;28;20048;-74
2022/08/03 03:41:39;;;;;;;5.57;3.47;;;;;;;14.40;100.00;93220.03;5102073;28;20051;-74
2022/08/03 03:44:06;;;;;;;2.88;1.95;;;;;;;14.40;100.00;93217.44;5096287;28;20089;-74
2022/08/03 03:46:34;;;;;;;5.07;2.45;;;;;;;14.39;100.00;93215.06;5099841;28;20497;-75
2022/08/03 03:49:01;;;;;;;3.75;1.92;;;;;;;14.47;100.00;93216.50;5104323;28;20048;-75
2022/08/03 03:51:28;;;;;;;3.92;2.10;;;;;;;14.48;100.00;93220.69;5098610;28;20447;-75
2022/08/03 03:53:56;;;;;;;4.78;2.42;;;;;;;14.46;100.00;93220.09;5096145;28;20125;-75
2022/08/03 03:56:24;;;;;;;10.48;1.83;;;;;;;14.56;100.00;93225.44;5102722;28;20050;-75
2022/08/03 03:58:50;;;;;;;5.55;2.42;;;;;;;14.60;100.00;93226.56;5103610;28;20047;-75
2022/08/03 04:01:17;;;;;;;5.38;2.22;;;;;;;14.66;100.00;93227.41;5095546;28;20572;-75
2022/08/03 04:03:46;;;;;;;2.75;1.50;;;;;;;14.68;100.00;93226.16;5097979;28;20417;-75
2022/08/03 04:11:42;;;;;;;5.53;2.10;;;;;;;14.75;100.00;93227.84;5068201;28;20054;-75
2022/08/03 04:14:12;;;;;;;3.03;1.83;;;;;;;14.76;100.00;93226.84;5103810;28;20039;-75
2022/08/03 04:16:42;;;;;;;2.80;2.00;;;;;;;14.79;100.00;93224.56;5103861;28;20047;-75
2022/08/03 04:19:14;;;;;;;4.05;2.65;;;;;;;14.83;100.00;93228.22;5102551;28;20123;-75
2022/08/03 04:21:43;;;;;;;2.85;1.73;;;;;;;14.79;100.00;93216.81;5095144;28;20051;-77
2022/08/03 04:24:13;;;;;;;3.80;2.13;;;;;;;14.87;100.00;93222.59;5097426;28;20086;-76
2022/08/03 04:26:43;;;;;;;3.05;2.13;;;;;;;14.91;100.00;93229.63;5103664;28;20121;-75
2022/08/03 04:29:11;;;;;;;6.53;2.80;;;;;;;14.96;100.00;93223.78;5101286;28;20455;-77
2022/08/03 04:31:41;;;;;;;3.78;2.20;;;;;;;14.91;100.00;93213.34;5095302;28;20112;-76
2022/08/03 04:34:10;;;;;;;4.88;2.63;;;;;;;15.00;100.00;93224.84;5099243;28;20489;-76
2022/08/03 04:36:44;;;;;;;4.70;2.35;;;;;;;15.06;100.00;93220.53;5103763;28;20443;-76
2022/08/03 04:39:15;;;;;;;7.72;2.67;;;;;;;15.12;100.00;93222.19;5099389;28;20337;-76
2022/08/03 04:41:43;;;;;;;6.00;2.85;;;;;;;15.15;100.00;93221.72;5095090;28;20048;-75
2022/08/03 04:44:13;;;;;;;5.97;2.92;;;;;;;15.25;100.00;93230.63;5100791;28;20101;-75
2022/08/03 04:46:40;;;;;;;4.75;2.25;;;;;;;15.28;100.00;93233.50;5092963;28;20055;-76
2022/08/03 04:49:08;;;;;;;4.55;2.80;;;;;;;15.35;100.00;93243.72;5103202;28;20101;-75
2022/08/03 04:51:39;;;;;;;5.30;2.70;;;;;;;15.28;100.00;93236.09;5099353;28;20097;-76
2022/08/03 04:54:07;;;;;;;3.80;2.78;;;;;;;15.33;100.00;93227.66;5095162;28;20044;-76
2022/08/03 04:56:34;;;;;;;4.38;2.80;;;;;;;15.39;100.00;93229.28;5100543;28;20076;-76
2022/08/03 04:59:01;;;;;;;5.85;2.75;;;;;;;15.55;100.00;93234.66;5103158;28;20055;-76
2022/08/03 05:01:27;;;;;;;5.70;2.17;;;;;;;15.57;100.00;93242.97;5096465;28;20048;-76
2022/08/03 05:03:54;;;;;;;7.78;2.58;;;;;;;15.45;100.00;93236.09;5101840;28;20040;-76
2022/08/03 05:06:21;;;;;;;3.53;2.40;;;;;;;15.52;100.00;93246.28;5109977;28;20098;-75
2022/08/03 05:08:49;;;;;;;4.47;2.60;;;;;;;15.55;100.00;93232.84;5094933;28;20044;-76
2022/08/03 05:11:16;;;;;;;4.05;2.90;;;;;;;15.70;100.00;93242.59;5108039;28;20523;-76
2022/08/03 05:13:44;;;;;;;5.30;2.92;;;;;;;15.89;100.00;93245.66;5101910;28;20518;-76
2022/08/03 05:16:12;;;;;;;4.15;2.55;;;;;;;16.05;100.00;93245.13;5102597;28;20538;-74
2022/08/03 05:18:39;;;;;;;5.45;2.97;;;;;;;16.25;100.00;93247.13;5109525;28;20127;-74
2022/08/03 05:21:06;;;;;;;5.53;2.90;;;;;;;16.33;100.00;93240.72;5107380;28;20060;-78
2022/08/03 05:23:32;;;;;;;4.63;3.13;;;;;;;16.53;100.00;93247.91;5101517;28;20043;-76
2022/08/03 05:26:00;;;;;;;4.07;3.15;;;;;;;16.67;100.00;93254.25;5105587;28;20093;-77
2022/08/03 05:28:27;;;;;;;8.65;2.85;;;;;;;16.65;100.00;93242.56;5109523;28;20054;-77
2022/08/03 05:30:54;;;;;;;8.40;2.88;;;;;;;16.72;100.00;93248.34;5105648;28;20088;-76
2022/08/03 05:33:21;;;;;;;4.15;3.00;;;;;;;16.80;100.00;93247.88;5100833;28;20056;-75
2022/08/03 05:35:47;;;;;;;6.28;2.67;;;;;;;16.83;100.00;93241.41;5109112;28;20459;-76
2022/08/03 05:38:14;;;;;;;4.93;2.67;;;;;;;16.95;100.00;93257.59;5108447;28;20092;-76
2022/08/03 05:40:41;;;;;;;5.78;2.40;;;;;;;17.06;100.00;93255.09;5101055;28;20050;-76
2022/08/03 05:43:09;;;;;;;6.80;2.90;;;;;;;17.21;100.00;93259.63;5104157;28;20056;-76
2022/08/03 05:45:36;;;;;;;5.07;2.53;;;;;;;17.30;100.00;93249.53;5109428;28;20048;-76
2022/08/03 05:48:04;;;;;;;3.85;2.65;;;;;;;17.42;100.00;93242.38;5104092;28;20493;-77
2022/08/03 05:50:31;;;;;;;4.95;2.63;;;;;;;17.58;100.00;93247.63;5101129;28;20055;-77
2022/08/03 05:52:58;;;;;;;4.22;3.08;;;;;;;17.69;100.00;93251.84;5108276;28;20074;-78
2022/08/03 05:55:24;;;;;;;4.53;2.17;;;;;;;17.87;100.00;93253.22;5108974;28;20096;-77
2022/08/03 05:57:51;;;;;;;7.50;2.83;;;;;;;18.09;100.00;93251.53;5101223;28;20040;-77
2022/08/03 06:00:20;;;;;;;4.57;2.42;;;;;;;18.24;100.00;93258.56;5103475;28;20048;-75
2022/08/03 06:02:46;;;;;;;4.97;2.63;;;;;;;18.47;100.00;93265.13;5109391;28;20048;-80
2022/08/03 06:05:13;;;;;;;5.05;2.60;;;;;;;18.71;100.00;93262.06;5105689;28;20129;-79
2022/08/03 06:07:40;;;;;;;5.45;2.17;;;;;;;19.01;97.76;93264.91;5101296;28;20044;-80
2022/08/03 06:10:08;;;;;;;9.70;3.15;;;;;;;19.34;96.31;93273.25;5107325;28;20080;-79
2022/08/03 06:12:35;;;;;;;7.03;2.72;;;;;;;19.66;92.91;93272.13;5109920;28;20039;-80
2022/08/03 06:15:02;;;;;;;6.43;2.42;;;;;;;19.94;92.72;93264.75;5098874;28;20047;-80
2022/08/03 06:17:31;;;;;;;5.50;2.58;;;;;;;20.19;90.56;93259.72;5099337;28;20051;-80
2022/08/03 06:19:58;;;;;;;14.82;3.38;;;;;;;20.47;89.18;93253.06;5106323;28;20129;-81
2022/08/03 06:22:24;;;;;;;7.05;3.05;;;;;;;20.92;85.84;93275.78;5104060;28;20103;-80
2022/08/03 06:24:51;;;;;;;7.88;2.53;;;;;;;21.25;85.55;93270.81;5098012;28;20036;-80
2022/08/03 06:27:18;;;;;;;7.32;2.88;;;;;;;21.18;80.10;93278.16;5102857;28;20052;-81
2022/08/03 06:29:45;;;;;;;11.02;3.22;;;;;;;21.40;80.29;93271.72;5106093;28;20529;-81
2022/08/03 06:32:11;;;;;;;8.40;2.42;;;;;;;21.70;78.50;93277.72;5100228;28;20044;-81
2022/08/03 06:34:39;;;;;;;6.80;3.55;;;;;;;22.05;77.60;93277.59;5097495;28;20506;-81
2022/08/03 06:37:06;;;;;;;5.00;2.78;;;;;;;22.49;75.41;93273.13;5105139;28;20354;-81
2022/08/03 06:39:33;;;;;;;11.30;2.65;;;;;;;22.74;73.31;93282.50;5091749;28;20051;-81
2022/08/03 06:41:59;;;;;;;11.88;3.25;;;;;;;23.14;72.24;93269.06;5105630;28;20109;-80
2022/08/03 06:44:26;;;;;;;6.18;1.83;;;;;;;23.52;70.37;93270.81;5103111;28;20040;-82
2022/08/03 06:46:53;;;;;;;4.65;2.72;;;;;;;24.00;69.36;93276.75;5094333;28;20098;-81
2022/08/03 06:49:20;;;;;;;5.72;2.58;;;;;;;24.40;68.17;93268.38;5105685;28;20040;-81
2022/08/03 06:51:49;;;;;;;4.85;2.20;;;;;;;24.23;64.94;93275.03;5103158;28;20047;-82
2022/08/03 06:54:16;;;;;;;4.13;2.30;;;;;;;24.21;63.87;93276.38;5097370;28;20047;-82
2022/08/03 06:56:43;;;;;;;6.78;2.33;;;;;;;24.58;63.73;93271.16;5101416;28;20105;-81
2022/08/03 06:59:10;;;;;;;5.85;2.55;;;;;;;24.89;63.06;93273.13;5105646;28;20047;-81
2022/08/03 07:01:36;;;;;;;8.43;2.95;;;;;;;25.16;61.93;93272.22;5099577;28;20101;-82
2022/08/03 07:04:03;;;;;;;4.72;2.00;;;;;;;24.80;60.91;93238.88;5097192;28;20048;-82
2022/08/03 07:06:30;;;;;;;5.03;2.13;;;;;;;25.41;60.96;93266.66;5104732;28;20055;-81
2022/08/03 07:08:58;;;;;;;7.40;2.03;;;;;;;25.77;59.13;93267.63;5104297;28;20047;-82
2022/08/03 07:11:25;;;;;;;12.88;2.38;;;;;;;26.12;59.38;93280.88;5096672;28;20051;-81
2022/08/03 07:13:52;;;;;;;9.90;1.90;;;;;;;26.53;58.41;93263.91;5099952;28;20502;-81
2022/08/03 07:16:18;;;;;;;4.75;1.90;;;;;;;26.65;56.19;93267.78;5099965;28;20047;-82
2022/08/03 07:18:45;;;;;;;6.35;2.40;;;;;;;26.45;56.84;93264.69;5100974;28;20104;-82
2022/08/03 07:21:12;;;;;;;3.90;2.00;;;;;;;26.79;55.85;93255.25;5095723;28;20047;-82
2022/08/03 07:23:39;;;;;;;3.38;1.77;;;;;;;27.21;55.25;93267.94;5101208;28;20150;-82
2022/08/03 07:26:07;;;;;;;12.77;3.38;;;;;;;27.43;55.41;93255.63;5103832;28;20048;-82
2022/08/03 07:28:34;;;;;;;11.45;2.70;;;;;;;27.86;54.20;93274.31;5098895;28;20782;-82
2022/08/03 07:31:01;;;;;;;6.07;2.15;;;;;;;27.93;51.48;93271.94;5096264;28;20512;-82
2022/08/03 07:33:27;;;;;;;12.98;3.03;;;;;;;28.09;52.77;93264.22;5104391;28;20044;-83
2022/08/03 07:35:54;;;;;;;10.20;2.40;;;;;;;28.40;52.05;93280.88;5103305;28;20039;-82
2022/08/03 07:38:21;;;;;;;11.68;2.42;;;;;;;28.70;52.11;93272.13;5096192;28;20063;-83
2022/08/03 07:40:48;;;;;;;11.50;2.72;;;;;;;28.93;50.44;93275.22;5100071;28;20044;-84
2022/08/03 07:43:16;;;;;;;5.78;2.10;;;;;;;29.09;50.61;93272.75;5104395;28;20062;-83
2022/08/03 07:45:43;;;;;;;6.32;2.55;;;;;;;28.01;50.41;93263.19;5096202;28;20074;-83
2022/08/03 07:48:10;;;;;;;9.48;2.88;;;;;;;28.30;51.31;93266.19;5100529;28;20113;-84
2022/08/03 07:50:36;;;;;;;8.48;2.45;;;;;;;28.65;51.75;93268.56;5096431;28;20044;-82
2022/08/03 07:53:03;;;;;;;4.07;1.63;;;;;;;28.78;49.11;93276.53;5102735;28;20093;-85
2022/08/03 07:55:30;;;;;;;5.18;1.50;;;;;;;29.06;48.17;93276.81;5104417;28;20544;-84
2022/08/03 07:58:01;;;;;;;7.45;1.92;;;;;;;28.46;49.55;93282.22;5096572;28;20101;-83
2022/08/03 08:00:31;;;;;;;3.58;1.55;;;;;;;28.01;47.63;93283.56;5097346;28;20113;-86
2022/08/03 08:02:58;;;;;;;2.95;1.17;;;;;;;27.51;48.33;93291.00;5095715;28;20062;-86
2022/08/03 08:05:25;;;;;;;4.13;1.02;;;;;;;26.75;49.98;93267.50;5097963;28;20060;-83
2022/08/03 08:07:52;;;;;;;4.13;1.40;;;;;;;26.77;49.71;93283.78;5104201;28;20040;-82
2022/08/03 08:10:19;;;;;;;2.58;1.10;;;;;;;26.11;50.58;93290.63;5099952;28;20657;-84
2022/08/03 08:12:47;;;;;;;5.50;1.23;;;;;;;25.74;52.21;93290.81;5095721;28;20066;-86
2022/08/03 08:15:15;;;;;;;3.20;1.38;;;;;;;25.97;52.37;93292.59;5101681;28;20047;-84
2022/08/03 08:17:50;;;;;;;4.38;1.52;;;;;;;26.14;52.19;93290.00;5103970;28;20088;-84
2022/08/03 08:20:19;;;;;;;2.20;1.10;;;;;;;26.21;51.02;93294.84;5098640;28;20052;-86
2022/08/03 08:22:55;;;;;;;2.35;1.10;;;;;;;26.56;50.38;93286.22;5095769;28;20052;-81
2022/08/03 08:25:22;;;;;;;1.80;1.20;;;;;;;26.21;51.08;93292.22;5101862;28;20102;-81
2022/08/03 08:27:50;;;;;;;3.03;1.33;;;;;;;26.74;50.09;93281.00;5100260;28;20036;-82
2022/08/03 08:30:18;;;;;;;2.05;1.38;;;;;;;26.97;50.67;93267.69;5088890;28;20104;-81
2022/08/03 08:32:48;;;;;;;3.88;1.05;;;;;;;27.33;48.42;93280.50;5088310;28;20135;-79
2022/08/03 08:35:15;;;;;;;4.07;1.30;;;;;;;27.55;48.64;93281.38;5088446;28;20551;-81
2022/08/03 08:37:43;;;;;;;3.03;1.30;;;;;;;26.88;47.78;93288.75;5088451;28;20438;-81
2022/08/03 08:40:12;;;;;;;1.80;1.10;;;;;;;26.57;48.28;93277.28;5088561;28;20414;-81
2022/08/03 08:42:40;;;;;;;2.30;1.25;;;;;;;26.66;48.13;93291.19;5088558;28;20100;-82
2022/08/03 08:45:08;;;;;;;1.95;1.05;;;;;;;26.79;48.00;93286.88;5088956;28;20444;-81
2022/08/03 08:47:38;;;;;;;2.03;0.93;;;;;;;26.85;47.69;93284.88;5106571;28;20067;-82
2022/08/03 08:50:08;;;;;;;1.83;0.90;;;;;;;26.94;46.67;93277.75;5109279;28;20122;-82
2022/08/03 08:52:35;;;;;;;1.80;0.70;;;;;;;26.75;47.78;93291.19;5097155;28;20119;-82
2022/08/03 08:55:04;;;;;;;1.50;1.00;;;;;;;26.93;48.44;93281.47;5088925;28;20044;-82
2022/08/03 08:57:34;;;;;;;2.30;1.38;;;;;;;27.09;48.47;93278.38;5088569;28;20089;-81
2022/08/03 09:00:02;;;;;;;2.08;0.93;;;;;;;27.18;48.08;93273.84;5088689;28;20093;-81
2022/08/03 09:02:30;;;;;;;1.63;1.00;;;;;;;26.98;47.56;93269.97;5091787;28;20052;-81
2022/08/03 09:04:58;;;;;;;2.35;0.70;;;;;;;27.07;47.01;93267.34;5100430;28;20125;-80
2022/08/03 09:07:28;;;;;;;1.52;0.75;;;;;;;27.18;47.17;93276.47;5103461;28;20052;-81
2022/08/03 09:09:55;;;;;;;1.75;1.10;;;;;;;27.21;46.24;93281.13;5097131;28;20069;-81
2022/08/03 09:12:22;;;;;;;2.08;0.88;;;;;;;27.14;46.56;93272.94;5095338;28;20044;-81
2022/08/03 09:14:49;;;;;;;3.70;1.10;;;;;;;26.74;46.36;93276.47;5095424;28;20096;-81
2022/08/03 09:17:16;;;;;;;1.90;1.00;;;;;;;26.66;48.65;93279.91;5095851;28;20055;-82
2022/08/03 09:19:43;;;;;;;2.28;1.00;;;;;;;26.76;47.54;93287.47;5093261;28;20458;-81
2022/08/03 09:22:12;;;;;;;1.90;0.98;;;;;;;27.23;47.58;93280.03;5099645;28;20048;-80
2022/08/03 09:24:55;;;;;;;2.72;0.65;;;;;;;26.84;46.08;93277.28;5103458;28;20048;-80
2022/08/03 09:27:22;;;;;;;2.05;1.00;;;;;;;26.72;46.46;93272.59;5099221;28;20131;-80
2022/08/03 09:29:50;;;;;;;1.80;0.70;;;;;;;26.78;45.13;93279.28;5102942;28;20043;-79
2022/08/03 09:32:20;;;;;;;5.03;1.08;;;;;;;27.34;45.14;93273.34;5097662;28;20493;-80
2022/08/03 09:34:47;;;;;;;1.83;0.85;;;;;;;27.39;44.38;93269.78;5094762;28;20509;-80
2022/08/03 09:37:15;;;;;;;1.67;0.90;;;;;;;27.49;43.96;93266.78;5098858;28;20048;-82
2022/08/03 09:39:44;;;;;;;1.65;1.10;;;;;;;26.98;45.76;93275.25;5095467;28;20055;-80
2022/08/03 09:42:12;;;;;;;3.45;1.10;;;;;;;27.56;45.12;93279.50;5089032;28;20089;-81
2022/08/03 09:44:41;;;;;;;1.70;0.90;;;;;;;27.38;43.58;93276.91;5087844;28;20048;-80
2022/08/03 09:47:09;;;;;;;1.65;0.90;;;;;;;27.65;45.14;93282.91;5090189;28;20048;-81
2022/08/03 09:49:36;;;;;;;1.95;1.10;;;;;;;27.76;46.02;93269.38;5102495;28;20054;-79
2022/08/03 09:52:14;;;;;;;2.22;1.10;;;;;;;27.33;46.17;93255.97;5106750;28;20039;-80
2022/08/03 09:54:41;;;;;;;1.55;0.90;;;;;;;27.64;46.06;93264.75;5105080;28;20048;-81
2022/08/03 09:57:20;;;;;;;1.98;1.13;;;;;;;28.06;46.49;93275.44;5106144;28;20501;-80
2022/08/03 09:59:47;;;;;;;3.17;1.20;;;;;;;28.16;44.48;93271.66;5105632;28;20127;-81
2022/08/03 10:02:22;;;;;;;5.07;1.40;;;;;;;28.05;45.00;93268.59;5106703;28;20043;-81
2022/08/03 10:04:51;;;;;;;6.00;1.35;;;;;;;27.63;42.40;93271.13;5105926;28;20413;-82
2022/08/03 10:07:19;;;;;;;2.25;1.42;;;;;;;28.35;44.42;93259.91;5093228;28;20101;-79
2022/08/03 10:09:55;;;;;;;3.78;1.40;;;;;;;28.38;42.51;93267.22;5106687;28;20048;-80
2022/08/03 10:12:23;;;;;;;;;;;;;;;28.21;44.42;93257.50;5095394;28;20089;-80
2022/08/03 10:14:51;;;;;;;1.88;1.15;;;;;;;27.79;44.73;93245.75;5103382;28;19973;-80
2022/08/03 10:17:18;;;;;;;2.10;1.30;;;;;;;27.94;45.10;93241.00;5106566;28;20051;-80
2022/08/03 10:19:46;;;;;;;2.67;1.55;;;;;;;28.30;45.08;93223.13;5106182;28;20097;-80
2022/08/03 10:22:15;;;;;;;2.40;1.20;;;;;;;28.58;43.40;93244.53;5104464;28;20043;-80
2022/08/03 10:24:49;;;;;;;1.95;1.40;;;;;;;28.49;43.99;93251.75;5097809;28;20059;-81
2022/08/03 10:27:19;;;;;;;3.05;1.88;;;;;;;28.62;43.21;93249.94;5100126;28;20423;-81
2022/08/03 10:29:52;;;;;;;2.78;1.55;;;;;;;28.46;43.38;93239.94;5105899;28;20035;-79
2022/08/03 10:32:24;;;;;;;4.18;2.60;;;;;;;28.81;42.73;93249.47;5104212;28;20048;-80
2022/08/03 10:34:54;;;;;;;2.90;1.73;;;;;;;28.84;42.28;93240.13;5097714;28;20043;-80
2022/08/03 10:37:24;;;;;;;2.42;1.75;;;;;;;28.88;41.79;93241.81;5100594;28;20554;-81
2022/08/03 10:39:55;;;;;;;4.13;2.50;;;;;;;29.31;40.81;93242.53;5106110;28;20047;-81
2022/08/03 10:42:24;;;;;;;5.00;2.75;;;;;;;28.03;41.64;93220.63;5102074;28;20048;-82
2022/08/03 10:45:04;;;;;;;3.30;2.40;;;;;;;28.49;43.63;93244.59;5097166;28;20572;-78
2022/08/03 10:47:33;;;;;;;3.70;2.10;;;;;;;29.07;43.76;93237.94;5097282;28;20454;-78
2022/08/03 10:50:00;;;;;;;2.80;1.95;;;;;;;28.21;43.33;93213.38;5100814;28;20113;-84
2022/08/03 10:52:27;;;;;;;4.75;2.55;;;;;;;28.72;42.15;93231.06;5100311;28;20123;-85
2022/08/03 10:57:50;;;;;;;4.17;2.60;;;;;;;28.42;42.23;93210.00;5099053;28;20062;-85
2022/08/03 11:00:19;;;;;;;3.28;2.55;;;;;;;28.22;41.75;93212.28;5098497;28;20501;-84
2022/08/03 11:03:07;;;;;;;3.38;2.30;;;;;;;28.56;42.63;93224.81;5096922;28;20089;-85
2022/08/03 11:05:39;;;;;;;4.00;2.55;;;;;;;29.26;42.03;93229.50;5094262;28;20063;-83
2022/08/03 11:08:28;;;;;;;3.13;2.00;;;;;;;29.19;40.08;93200.16;5103469;28;20043;-81
2022/08/03 11:10:57;;;;;;;4.32;2.30;;;;;;;29.40;42.42;93215.97;5105612;28;20101;-83
2022/08/03 11:13:27;;;;;;;3.13;1.90;;;;;;;28.32;42.12;93213.03;5106102;28;20044;-83
2022/08/03 11:15:57;;;;;;;4.28;2.05;;;;;;;28.07;44.04;93223.41;5097094;28;20040;-82
2022/08/03 11:18:25;;;;;;;3.83;1.90;;;;;;;27.48;44.85;93226.44;5100739;28;20566;-83
2022/08/03 11:20:53;;;;;;;6.45;2.47;;;;;;;27.59;44.72;93218.97;5105175;28;20051;-82
2022/08/03 11:23:40;;;;;;;2.40;1.75;;;;;;;27.76;42.87;93214.72;5099299;28;20043;-82
2022/08/03 11:26:18;;;;;;;3.55;2.20;;;;;;;28.00;44.01;93216.00;5096556;28;20046;-82
2022/08/03 11:28:46;;;;;;;2.65;2.00;;;;;;;28.29;43.26;93214.44;5099787;28;20102;-83
2022/08/03 11:31:47;;;;;;;3.00;1.98;;;;;;;28.32;43.25;93197.19;5104960;28;20052;-82
2022/08/03 11:34:16;;;;;;;3.17;1.85;;;;;;;28.58;44.17;93209.41;5098659;28;20044;-83
2022/08/03 11:37:21;;;;;;;3.22;1.80;;;;;;;28.65;42.95;93213.06;5097091;28;20918;-82
2022/08/03 11:39:50;;;;;;;2.40;1.50;;;;;;;28.75;43.78;93172.28;5096705;28;20134;-81
2022/08/03 11:42:44;;;;;;;2.67;1.60;;;;;;;29.31;43.45;93202.84;5100187;28;20555;-81
2022/08/03 11:45:11;;;;;;;5.65;2.67;;;;;;;29.57;41.96;93204.41;5096972;28;20052;-82
2022/08/03 11:47:41;;;;;;;4.57;1.80;;;;;;;29.46;40.06;93213.88;5096327;28;20124;-81